logo
Search for airport 
image banner adimage banner adimage banner ad
image banner ad

HL57 - Al Wigh Airport

Located in , Libyan Arab Jamahiriya

ICAO - HL57, IATA -

Data provided by Airmate  

General information

Coordinates: N24°11'9" E14°31'58"
Elevation is 1558 feet MSL.
Magnetic variation is 3° East
View others Airports in Murzuq District

Operational data

Special qualification required
Current time UTC:
Current local time:
Weather at : - ( 0 km )
METAR: ZMCK 152030Z VRB01MPS 9999 SCT033 14/14 Q1012 NOSIG
View NOTAMs / SUP AIP / TFR affecting this airport [VIEW]
Communications frequencies: [VIEW]

Runways:

Airport contact information

Address: Libyan Arab Jamahiriya

Satellite view of HL57